Time;durP1;ratioP1;P1;durP2;ratioP2;P2;SDS_P1;SDS_P2;PMS_P1;PMS_P2;Temp;Humidity;BMP_temperature;BMP_pressure;BME280_temperature;BME280_humidity;BME280_pressure;Samples;Min_cycle;Max_cycle;Signal;HPM_P1;HPM_P2
2022/06/26 00:01:39;;;;;;;0.50;0.20;;;;;;;20.02;100.00;99884.94;5031730;28;20471;-49
2022/06/26 00:04:06;;;;;;;0.50;0.20;;;;;;;19.77;100.00;99884.06;5032327;28;20797;-48
2022/06/26 00:06:32;;;;;;;0.50;0.20;;;;;;;20.06;100.00;99881.03;5032104;28;20447;-49
2022/06/26 00:08:59;;;;;;;0.50;0.20;;;;;;;20.07;100.00;99877.38;5021452;28;20797;-50
2022/06/26 00:11:25;;;;;;;0.50;0.20;;;;;;;20.29;100.00;99866.69;5030630;28;20463;-49
2022/06/26 00:14:07;;;;;;;0.50;0.20;;;;;;;20.18;100.00;99861.22;5017877;28;20829;-49
2022/06/26 00:16:33;;;;;;;0.50;0.20;;;;;;;20.22;100.00;99857.31;5032378;28;20933;-49
2022/06/26 00:19:00;;;;;;;0.50;0.20;;;;;;;20.17;100.00;99870.31;5021651;28;20456;-48
2022/06/26 00:21:26;;;;;;;0.50;0.20;;;;;;;20.11;100.00;99870.75;5020489;28;20471;-49
2022/06/26 00:23:53;;;;;;;0.50;0.20;;;;;;;20.12;100.00;99870.63;5025773;28;20991;-49
2022/06/26 00:26:19;;;;;;;0.50;0.20;;;;;;;20.17;100.00;99875.72;5031970;28;20539;-48
2022/06/26 00:28:46;;;;;;;0.50;0.20;;;;;;;20.13;100.00;99868.78;5022888;28;20463;-49
2022/06/26 00:31:12;;;;;;;0.50;0.20;;;;;;;19.99;100.00;99869.81;5024558;28;21050;-50
2022/06/26 00:33:39;;;;;;;0.50;0.20;;;;;;;20.13;100.00;99872.34;5035955;28;20542;-49
2022/06/26 00:36:05;;;;;;;0.50;0.20;;;;;;;20.13;100.00;99866.97;5035666;28;20502;-49
2022/06/26 00:38:32;;;;;;;0.50;0.20;;;;;;;20.25;100.00;99867.88;5025520;28;20456;-51
2022/06/26 00:40:58;;;;;;;0.50;0.20;;;;;;;20.21;100.00;99874.50;5035571;28;20490;-49
2022/06/26 00:43:28;;;;;;;0.50;0.20;;;;;;;20.24;100.00;99873.41;5035436;28;20458;-48
2022/06/26 00:45:55;;;;;;;0.50;0.20;;;;;;;20.23;100.00;99880.63;5034259;28;20444;-49
2022/06/26 00:48:22;;;;;;;0.50;0.20;;;;;;;20.23;100.00;99886.03;5026157;28;20462;-49
2022/06/26 00:50:50;;;;;;;0.50;0.20;;;;;;;20.22;100.00;99883.44;5026929;28;20465;-49
2022/06/26 00:53:17;;;;;;;0.50;0.20;;;;;;;20.18;100.00;99887.38;5024244;28;20509;-48
2022/06/26 00:55:44;;;;;;;0.50;0.20;;;;;;;20.23;100.00;99885.16;5026619;28;20480;-49
2022/06/26 00:58:11;;;;;;;0.50;0.20;;;;;;;20.22;100.00;99886.16;5027550;28;20470;-49
2022/06/26 01:00:37;;;;;;;0.50;0.20;;;;;;;20.20;100.00;99893.50;5020843;28;20837;-50
2022/06/26 01:03:04;;;;;;;0.50;0.20;;;;;;;20.16;100.00;99890.19;5026562;28;20952;-49
2022/06/26 01:05:30;;;;;;;0.50;0.20;;;;;;;20.14;100.00;99894.81;5026641;28;20441;-49
2022/06/26 01:07:57;;;;;;;0.50;0.20;;;;;;;20.00;100.00;99895.81;5022618;28;20447;-49
2022/06/26 01:10:24;;;;;;;0.50;0.20;;;;;;;20.18;100.00;99884.66;5025236;28;20444;-49
2022/06/26 01:12:51;;;;;;;0.50;0.30;;;;;;;19.92;100.00;99892.00;5027059;28;20590;-50
2022/06/26 01:15:19;;;;;;;0.50;0.20;;;;;;;20.10;100.00;99894.19;5022436;28;20980;-49
2022/06/26 01:17:46;;;;;;;0.50;0.20;;;;;;;20.09;100.00;99903.25;5026155;28;20467;-49
2022/06/26 01:20:13;;;;;;;0.50;0.20;;;;;;;20.22;100.00;99910.44;5023499;28;20451;-50
2022/06/26 01:22:39;;;;;;;0.50;0.20;;;;;;;20.16;100.00;99911.78;5027513;28;20459;-49
2022/06/26 01:25:06;;;;;;;0.50;0.20;;;;;;;20.22;100.00;99914.00;5025812;28;20439;-50
2022/06/26 01:27:41;;;;;;;0.50;0.20;;;;;;;20.22;100.00;99916.69;5027180;28;20464;-50
2022/06/26 01:30:08;;;;;;;0.50;0.20;;;;;;;19.96;100.00;99920.47;5025952;28;20968;-49
2022/06/26 01:32:35;;;;;;;0.50;0.20;;;;;;;20.12;100.00;99932.72;5024330;28;20482;-49
2022/06/26 01:35:02;;;;;;;0.50;0.20;;;;;;;20.12;100.00;99934.53;5026010;28;20484;-49
2022/06/26 01:37:28;;;;;;;0.50;0.20;;;;;;;20.31;100.00;99947.56;5023686;28;20456;-50
2022/06/26 01:39:55;;;;;;;0.50;0.20;;;;;;;20.26;100.00;99950.59;5025875;28;20455;-51
2022/06/26 01:42:21;;;;;;;0.50;0.20;;;;;;;20.24;100.00;99948.97;5023107;28;20479;-49
2022/06/26 01:44:48;;;;;;;0.50;0.20;;;;;;;20.18;100.00;99950.31;5025242;28;20440;-49
2022/06/26 01:47:14;;;;;;;0.50;0.20;;;;;;;20.23;100.00;99953.50;5025185;28;20454;-50
2022/06/26 01:49:40;;;;;;;0.50;0.20;;;;;;;20.11;100.00;99949.00;5025647;28;20952;-49
2022/06/26 01:52:07;;;;;;;0.50;0.20;;;;;;;20.07;100.00;99950.22;5023605;28;20475;-49
2022/06/26 01:54:33;;;;;;;0.50;0.20;;;;;;;20.04;100.00;99940.53;5025226;28;20536;-52
2022/06/26 01:57:00;;;;;;;0.50;0.20;;;;;;;20.22;100.00;99949.09;5020689;28;20442;-50
2022/06/26 01:59:26;;;;;;;0.50;0.20;;;;;;;20.00;100.00;99957.03;5023174;28;20445;-49
2022/06/26 02:01:53;;;;;;;0.50;0.20;;;;;;;20.05;100.00;99958.44;5025479;28;20460;-49
2022/06/26 02:04:19;;;;;;;0.50;0.20;;;;;;;20.08;100.00;99951.94;5024065;28;20455;-49
2022/06/26 02:06:46;;;;;;;0.50;0.20;;;;;;;19.95;100.00;99943.88;5025665;28;20929;-49
2022/06/26 02:13:35;;;;;;;0.50;0.20;;;;;;;19.71;100.00;99941.13;5024839;28;20487;-49
2022/06/26 02:14:44;;;;;;;0.50;0.20;;;;;;;20.00;100.00;99940.84;5026130;28;21026;-49
2022/06/26 02:17:10;;;;;;;0.50;0.20;;;;;;;20.12;100.00;99939.94;5025376;28;20535;-49
2022/06/26 02:19:37;;;;;;;0.50;0.20;;;;;;;20.10;100.00;99939.19;5019960;28;20534;-49
2022/06/26 02:22:03;;;;;;;0.50;0.20;;;;;;;20.11;100.00;99938.22;5025352;28;20464;-50
2022/06/26 02:24:30;;;;;;;0.50;0.20;;;;;;;20.15;100.00;99942.44;5023729;28;20448;-48
2022/06/26 02:26:56;;;;;;;0.50;0.20;;;;;;;20.22;100.00;99943.69;5026944;28;20830;-50
2022/06/26 02:29:23;;;;;;;0.50;0.20;;;;;;;20.23;100.00;99939.16;5020479;28;20491;-50
2022/06/26 02:31:49;;;;;;;1.70;1.60;;;;;;;20.20;100.00;99937.56;5023594;28;20475;-50
2022/06/26 02:34:20;;;;;;;0.50;0.20;;;;;;;20.27;100.00;99937.94;5021454;28;20441;-50
2022/06/26 02:36:46;;;;;;;0.50;0.20;;;;;;;20.22;100.00;99942.84;5023485;28;20491;-49
2022/06/26 02:39:13;;;;;;;0.50;0.20;;;;;;;20.16;100.00;99941.47;5024894;28;20444;-49
2022/06/26 02:41:39;;;;;;;0.50;0.20;;;;;;;20.05;100.00;99949.47;5025220;28;20480;-51
2022/06/26 02:44:06;;;;;;;0.50;0.20;;;;;;;20.07;100.00;99952.94;5024636;28;20926;-50
2022/06/26 02:46:32;;;;;;;0.50;0.20;;;;;;;20.17;100.00;99951.28;5021049;28;20448;-49
2022/06/26 02:48:58;;;;;;;0.50;0.20;;;;;;;20.10;100.00;99936.50;5024159;28;20499;-48
2022/06/26 02:51:25;;;;;;;0.50;0.20;;;;;;;20.07;100.00;99944.81;5024374;28;20847;-48
2022/06/26 02:53:52;;;;;;;0.50;0.20;;;;;;;19.90;100.00;99934.41;5024217;28;20453;-48
2022/06/26 02:56:18;;;;;;;0.50;0.20;;;;;;;20.09;100.00;99926.69;5024348;28;20643;-49
2022/06/26 02:58:45;;;;;;;0.50;0.20;;;;;;;20.09;100.00;99941.03;5022226;28;20444;-49
2022/06/26 03:01:12;;;;;;;0.50;0.20;;;;;;;20.04;100.00;99943.22;5025247;28;20460;-49
2022/06/26 03:03:38;;;;;;;0.50;0.20;;;;;;;19.84;100.00;99949.19;5021941;28;20503;-49
2022/06/26 03:06:05;;;;;;;0.50;0.20;;;;;;;19.78;100.00;99955.03;5021891;28;20445;-49
2022/06/26 03:08:31;;;;;;;0.50;0.20;;;;;;;19.92;100.00;99941.41;5024328;28;20448;-49
2022/06/26 03:10:58;;;;;;;0.50;0.20;;;;;;;19.64;100.00;99939.00;5021662;28;20549;-49
2022/06/26 03:13:24;;;;;;;0.50;0.20;;;;;;;19.51;100.00;99939.84;5022296;28;20444;-49
2022/06/26 03:15:51;;;;;;;0.50;0.20;;;;;;;19.51;100.00;99937.13;5023726;28;20517;-49
2022/06/26 03:18:17;;;;;;;0.50;0.20;;;;;;;19.67;100.00;99936.94;5023605;28;20444;-49
2022/06/26 03:20:44;;;;;;;0.50;0.20;;;;;;;19.71;100.00;99934.88;5024496;28;20443;-49
2022/06/26 03:23:11;;;;;;;0.50;0.20;;;;;;;19.75;100.00;99934.56;5024185;28;20528;-49
2022/06/26 03:25:37;;;;;;;0.50;0.20;;;;;;;19.70;100.00;99944.78;5022217;28;20476;-49
2022/06/26 03:28:04;;;;;;;0.50;0.20;;;;;;;19.74;100.00;99954.41;5023448;28;20458;-49
2022/06/26 03:30:30;;;;;;;0.50;0.20;;;;;;;19.79;100.00;99937.88;5024453;28;20454;-49
2022/06/26 03:32:57;;;;;;;0.50;0.20;;;;;;;19.76;100.00;99952.47;5023509;28;20828;-49
2022/06/26 03:35:23;;;;;;;0.50;0.20;;;;;;;19.54;100.00;99954.91;5024558;28;20492;-49
2022/06/26 03:37:50;;;;;;;0.50;0.20;;;;;;;19.60;100.00;99956.34;5023865;28;20457;-48
2022/06/26 03:40:17;;;;;;;0.50;0.20;;;;;;;19.51;100.00;99947.91;5023267;28;20446;-48
2022/06/26 03:42:43;;;;;;;0.50;0.20;;;;;;;19.52;100.00;99946.94;5022592;28;20486;-49
2022/06/26 03:45:10;;;;;;;0.50;0.20;;;;;;;19.72;100.00;99950.06;5025438;28;20448;-49
2022/06/26 03:47:36;;;;;;;0.50;0.20;;;;;;;19.64;100.00;99942.56;5022730;28;20466;-50
2022/06/26 03:50:06;;;;;;;0.50;0.20;;;;;;;19.85;100.00;99941.97;5023465;28;20456;-49
2022/06/26 03:52:32;;;;;;;0.50;0.20;;;;;;;19.73;100.00;99933.78;5023747;28;20529;-50
2022/06/26 03:55:01;;;;;;;0.50;0.20;;;;;;;19.76;100.00;99936.28;5022680;28;20444;-49
2022/06/26 03:57:28;;;;;;;0.50;0.20;;;;;;;19.85;100.00;99939.25;5022036;28;20460;-49
2022/06/26 03:59:55;;;;;;;0.50;0.20;;;;;;;19.80;100.00;99935.06;5025624;28;20435;-48
2022/06/26 04:02:21;;;;;;;0.50;0.20;;;;;;;19.86;100.00;99933.75;5022908;28;20467;-49
2022/06/26 04:04:47;;;;;;;0.50;0.20;;;;;;;19.89;100.00;99944.34;5023002;28;20999;-49
2022/06/26 04:07:14;;;;;;;0.50;0.20;;;;;;;19.82;100.00;99938.53;5021870;28;20448;-49
2022/06/26 04:09:41;;;;;;;0.50;0.20;;;;;;;19.88;100.00;99952.56;5024860;28;20821;-49
2022/06/26 04:12:08;;;;;;;0.50;0.20;;;;;;;19.87;100.00;99964.28;5022909;28;20463;-49
2022/06/26 04:14:35;;;;;;;0.50;0.20;;;;;;;19.85;100.00;99956.31;5022766;28;20448;-49
2022/06/26 04:17:02;;;;;;;0.50;0.20;;;;;;;19.76;100.00;99957.00;5023031;28;20993;-49
2022/06/26 04:19:29;;;;;;;0.50;0.20;;;;;;;19.78;100.00;99961.31;5022886;28;20447;-49
2022/06/26 04:21:55;;;;;;;0.50;0.20;;;;;;;19.83;100.00;99961.81;5022829;28;20786;-49
2022/06/26 04:24:22;;;;;;;0.50;0.20;;;;;;;19.75;100.00;99957.97;5023068;28;20978;-49
2022/06/26 04:26:48;;;;;;;0.50;0.20;;;;;;;19.77;100.00;99956.88;5022110;28;20528;-49
2022/06/26 04:29:15;;;;;;;0.50;0.20;;;;;;;19.82;100.00;99959.25;5026404;28;20949;-49
2022/06/26 04:31:41;;;;;;;0.50;0.20;;;;;;;19.70;100.00;99955.56;5021393;28;20464;-49
2022/06/26 04:34:08;;;;;;;0.50;0.20;;;;;;;19.89;100.00;99955.13;5023150;28;20487;-49
2022/06/26 04:36:34;;;;;;;0.50;0.20;;;;;;;19.87;100.00;99964.28;5022287;28;20476;-50
2022/06/26 04:39:01;;;;;;;0.50;0.20;;;;;;;19.93;100.00;99967.41;5022848;28;20941;-49
2022/06/26 04:41:38;;;;;;;0.50;0.20;;;;;;;19.86;100.00;99971.53;5022201;28;20996;-50
2022/06/26 04:44:08;;;;;;;0.50;0.20;;;;;;;19.83;100.00;99977.16;5017119;28;20448;-50
2022/06/26 04:46:35;;;;;;;0.50;0.20;;;;;;;19.88;100.00;99974.13;5015888;28;20440;-49
2022/06/26 04:49:03;;;;;;;0.50;0.20;;;;;;;19.77;100.00;99974.91;5022910;28;20453;-49
2022/06/26 04:51:30;;;;;;;0.40;0.20;;;;;;;19.82;100.00;99975.41;5023170;28;20538;-49
2022/06/26 04:53:57;;;;;;;0.40;0.20;;;;;;;19.69;100.00;99966.47;5020259;28;20498;-51
2022/06/26 04:56:23;;;;;;;0.40;0.20;;;;;;;19.69;100.00;99977.28;5023226;28;20483;-49
2022/06/26 04:58:53;;;;;;;0.40;0.20;;;;;;;19.88;100.00;99975.00;5022963;28;20449;-51
2022/06/26 05:01:19;;;;;;;0.40;0.20;;;;;;;20.06;100.00;99975.50;5019354;28;20550;-49
2022/06/26 05:03:46;;;;;;;0.40;0.20;;;;;;;20.74;100.00;99983.03;5024180;28;20441;-49
2022/06/26 05:06:12;;;;;;;0.40;0.20;;;;;;;21.05;100.00;99981.56;5022424;28;20432;-48
2022/06/26 05:08:39;;;;;;;0.40;0.20;;;;;;;20.96;100.00;99983.09;5019208;28;20453;-48
2022/06/26 05:11:05;;;;;;;0.40;0.20;;;;;;;20.65;100.00;99975.63;5021434;28;20981;-49
2022/06/26 05:13:32;;;;;;;0.40;0.20;;;;;;;21.37;100.00;99989.91;5018717;28;20456;-48
2022/06/26 05:15:59;;;;;;;0.40;0.30;;;;;;;21.68;100.00;99990.22;5018214;28;20487;-48
2022/06/26 05:18:26;;;;;;;0.40;0.20;;;;;;;21.80;100.00;99994.66;5025746;28;20440;-48
2022/06/26 05:20:52;;;;;;;0.40;0.20;;;;;;;22.52;100.00;100003.22;5025473;28;21010;-49
2022/06/26 05:23:19;;;;;;;0.40;0.20;;;;;;;23.13;99.27;100008.06;5023519;28;20825;-49
2022/06/26 05:25:46;;;;;;;0.40;0.20;;;;;;;23.37;95.78;99999.66;5025376;28;20451;-49
2022/06/26 05:28:13;;;;;;;0.40;0.20;;;;;;;23.53;95.27;99998.19;5025555;28;20531;-49
2022/06/26 05:30:39;;;;;;;0.40;0.20;;;;;;;23.86;94.37;100004.44;5027692;28;20454;-49
2022/06/26 05:33:06;;;;;;;0.40;0.20;;;;;;;24.22;90.39;100022.84;5025104;28;20905;-48
2022/06/26 05:35:32;;;;;;;0.40;0.20;;;;;;;24.47;89.56;100028.84;5024826;28;20463;-49
2022/06/26 05:37:59;;;;;;;0.40;0.40;;;;;;;24.41;90.19;100048.44;5023639;28;20820;-49
2022/06/26 05:40:26;;;;;;;0.40;0.20;;;;;;;24.37;91.80;100058.69;5027944;28;20447;-49
2022/06/26 05:42:57;;;;;;;0.40;0.20;;;;;;;24.87;87.60;100068.69;5025349;28;20534;-48
2022/06/26 05:45:23;;;;;;;0.40;0.20;;;;;;;24.34;88.70;100058.97;5025713;28;20451;-48
2022/06/26 05:47:50;;;;;;;0.40;0.20;;;;;;;24.87;86.13;100058.69;5025574;28;20440;-49
2022/06/26 05:50:17;;;;;;;0.40;0.20;;;;;;;24.70;86.94;100053.94;5023589;28;20452;-49
2022/06/26 05:52:44;;;;;;;0.40;0.20;;;;;;;25.09;85.79;100065.75;5025494;28;20470;-49
2022/06/26 05:55:15;;;;;;;0.40;0.20;;;;;;;24.59;86.76;100054.91;5027254;28;20433;-49
2022/06/26 05:57:42;;;;;;;0.40;0.20;;;;;;;24.56;85.65;100051.63;5030467;28;20485;-49
2022/06/26 06:00:09;;;;;;;0.40;0.30;;;;;;;24.14;87.92;100062.59;5028172;28;20943;-51
2022/06/26 06:02:35;;;;;;;0.40;0.20;;;;;;;23.24;90.67;100060.41;5034206;28;20474;-49
2022/06/26 06:05:02;;;;;;;0.40;0.20;;;;;;;23.20;92.48;100056.22;5033877;28;20448;-50
2022/06/26 06:07:29;;;;;;;0.40;0.20;;;;;;;22.90;94.22;100059.69;5019014;28;21007;-49
2022/06/26 06:09:55;;;;;;;0.40;0.20;;;;;;;22.35;95.79;100079.59;5008275;28;20955;-49
2022/06/26 06:12:22;;;;;;;0.40;0.20;;;;;;;22.66;94.49;100084.22;5025005;28;20469;-50
2022/06/26 06:14:48;;;;;;;0.40;0.20;;;;;;;22.45;94.88;100081.41;5033861;28;20539;-50
2022/06/26 06:20:00;;;;;;;0.40;0.20;;;;;;;22.91;94.47;100085.81;5024080;28;20517;-49
2022/06/26 06:22:27;;;;;;;0.40;0.20;;;;;;;23.57;90.98;100091.06;5025265;28;21486;-49
2022/06/26 06:24:53;;;;;;;0.40;0.20;;;;;;;23.34;90.22;100095.75;5021107;28;20459;-50
2022/06/26 06:27:20;;;;;;;0.40;0.20;;;;;;;23.51;90.96;100089.75;5022643;28;20471;-49
2022/06/26 06:29:46;;;;;;;0.77;0.70;;;;;;;24.16;89.66;100093.19;5019744;28;20444;-51
2022/06/26 06:32:12;;;;;;;0.40;0.20;;;;;;;23.07;91.05;100098.06;5030735;28;20471;-49
2022/06/26 06:34:39;;;;;;;0.40;0.20;;;;;;;23.75;90.89;100105.81;5025432;28;20452;-49
2022/06/26 06:37:06;;;;;;;0.40;0.20;;;;;;;24.56;87.52;100105.97;5026564;28;20462;-50
2022/06/26 06:39:32;;;;;;;0.40;0.20;;;;;;;24.10;88.54;100110.00;5021663;28;20916;-50
2022/06/26 06:41:59;;;;;;;0.40;0.20;;;;;;;25.02;85.04;100111.69;5026691;28;20501;-51
2022/06/26 06:44:27;;;;;;;0.40;0.20;;;;;;;24.35;86.81;100116.91;5021421;28;20454;-49
2022/06/26 06:46:53;;;;;;;0.40;0.20;;;;;;;24.43;87.57;100117.09;5017619;28;20439;-50
2022/06/26 06:49:20;;;;;;;0.40;0.20;;;;;;;24.57;86.63;100119.44;5023578;28;20870;-49
2022/06/26 06:51:47;;;;;;;0.40;0.20;;;;;;;23.75;91.00;100130.25;5020477;28;20472;-49
2022/06/26 06:54:13;;;;;;;0.53;0.40;;;;;;;23.66;91.75;100128.31;5016526;28;20424;-50
2022/06/26 06:56:40;;;;;;;0.40;0.20;;;;;;;23.56;92.22;100128.19;5022308;28;20861;-49
2022/06/26 06:59:07;;;;;;;0.43;0.33;;;;;;;23.62;92.36;100124.16;5034106;28;20444;-50
2022/06/26 07:01:41;;;;;;;0.40;0.20;;;;;;;23.38;92.36;100137.91;5033151;28;20459;-49
2022/06/26 07:04:07;;;;;;;0.40;0.30;;;;;;;23.04;92.17;100126.31;5033207;28;20480;-50
2022/06/26 07:06:34;;;;;;;0.40;0.20;;;;;;;23.03;93.61;100125.47;5032894;28;20544;-49
2022/06/26 07:09:00;;;;;;;0.40;0.20;;;;;;;23.18;93.29;100123.31;5033334;28;20447;-49
2022/06/26 07:11:28;;;;;;;0.40;0.20;;;;;;;23.14;93.15;100126.38;5033074;28;20468;-49
2022/06/26 07:13:54;;;;;;;0.40;0.20;;;;;;;23.62;91.32;100127.72;5033131;28;20824;-50
2022/06/26 07:16:21;;;;;;;0.40;0.20;;;;;;;24.00;88.93;100130.84;5029837;28;20480;-50
2022/06/26 07:18:47;;;;;;;0.40;0.20;;;;;;;23.86;88.39;100124.75;5024360;28;20951;-49
2022/06/26 07:21:14;;;;;;;0.40;0.30;;;;;;;24.18;86.48;100126.50;5033224;28;20478;-50
2022/06/26 07:23:40;;;;;;;0.40;0.20;;;;;;;24.16;85.98;100128.50;5024554;28;20452;-49
2022/06/26 07:26:07;;;;;;;0.40;0.20;;;;;;;24.41;86.50;100136.25;5017355;28;20963;-49
2022/06/26 07:28:34;;;;;;;0.40;0.20;;;;;;;24.16;84.73;100125.78;5026350;28;20452;-49
2022/06/26 07:31:00;;;;;;;0.40;0.20;;;;;;;24.88;85.28;100128.38;5032253;28;20479;-49
2022/06/26 07:36:12;;;;;;;0.40;0.20;;;;;;;24.00;86.54;100139.84;5008506;28;20484;-51
2022/06/26 07:38:38;;;;;;;0.40;0.20;;;;;;;24.63;84.42;100140.63;5006551;28;20544;-48
2022/06/26 07:41:05;;;;;;;0.40;0.30;;;;;;;24.70;84.76;100149.09;5002339;28;20462;-50
2022/06/26 07:43:32;;;;;;;0.40;0.20;;;;;;;24.37;85.44;100139.34;5026337;28;20542;-51
2022/06/26 07:45:58;;;;;;;0.40;0.20;;;;;;;24.51;82.99;100141.69;5032564;28;20453;-49
2022/06/26 07:48:25;;;;;;;0.40;0.20;;;;;;;25.07;81.10;100138.47;5013773;28;20872;-49
2022/06/26 07:50:51;;;;;;;0.40;0.20;;;;;;;25.37;80.46;100145.69;5006356;28;20472;-49
2022/06/26 07:53:18;;;;;;;0.40;0.20;;;;;;;25.23;79.94;100157.84;5024643;28;20539;-48
2022/06/26 07:55:44;;;;;;;0.40;0.20;;;;;;;25.04;81.47;100158.66;5031206;28;20454;-49
2022/06/26 07:58:11;;;;;;;0.40;0.20;;;;;;;25.12;80.80;100163.41;5029737;28;20499;-50
2022/06/26 08:00:37;;;;;;;0.40;0.20;;;;;;;25.44;80.85;100149.56;5011328;28;20415;-49
2022/06/26 08:03:05;;;;;;;0.40;0.20;;;;;;;25.50;78.57;100157.16;5014068;28;20458;-48
2022/06/26 08:05:31;;;;;;;0.40;0.20;;;;;;;25.30;77.51;100155.41;5032411;28;20454;-48
2022/06/26 08:07:58;;;;;;;0.40;0.20;;;;;;;25.16;77.40;100170.28;5032278;28;20506;-49
2022/06/26 08:10:31;;;;;;;0.40;0.20;;;;;;;25.00;78.93;100164.50;5032193;28;20447;-51
2022/06/26 08:12:57;;;;;;;0.40;0.20;;;;;;;24.94;78.21;100165.91;5017139;28;21015;-49
2022/06/26 08:15:24;;;;;;;0.40;0.20;;;;;;;25.04;78.79;100164.09;5017734;28;20451;-49
2022/06/26 08:17:51;;;;;;;0.40;0.30;;;;;;;24.94;76.65;100165.91;5015764;28;20862;-49
2022/06/26 08:20:18;;;;;;;0.40;0.30;;;;;;;25.23;76.59;100151.56;5020345;28;20423;-49
2022/06/26 08:22:44;;;;;;;0.40;0.20;;;;;;;25.45;77.22;100154.00;5026767;28;20434;-49
2022/06/26 08:25:10;;;;;;;0.40;0.20;;;;;;;24.94;74.49;100155.00;5027433;28;20415;-49
2022/06/26 08:27:37;;;;;;;0.40;0.20;;;;;;;24.68;78.85;100151.09;5023156;28;20430;-50
2022/06/26 08:30:06;;;;;;;0.40;0.20;;;;;;;25.19;77.92;100153.69;5031777;28;20479;-49
2022/06/26 08:32:38;;;;;;;0.40;0.20;;;;;;;25.34;79.23;100154.97;5032093;28;20510;-48
2022/06/26 08:35:05;;;;;;;0.40;0.20;;;;;;;24.89;78.99;100151.00;5031479;28;20818;-50
2022/06/26 08:37:32;;;;;;;0.40;0.20;;;;;;;25.21;79.60;100150.81;5031877;28;20491;-52
2022/06/26 08:39:59;;;;;;;0.40;0.20;;;;;;;25.23;78.32;100144.25;5021806;28;20424;-50
2022/06/26 08:42:26;;;;;;;0.40;0.27;;;;;;;25.22;79.14;100147.09;5012468;28;20495;-50
2022/06/26 08:44:56;;;;;;;0.40;0.20;;;;;;;25.55;78.66;100148.56;5026595;28;20439;-50
2022/06/26 08:47:24;;;;;;;0.40;0.20;;;;;;;25.79;77.72;100145.44;5038139;28;20500;-51
2022/06/26 08:49:55;;;;;;;0.40;0.20;;;;;;;25.61;75.43;100145.25;5017364;28;20897;-50
2022/06/26 08:52:22;;;;;;;0.40;0.30;;;;;;;26.12;77.00;100138.63;5024044;28;20472;-50
2022/06/26 08:54:49;;;;;;;0.40;0.20;;;;;;;26.53;75.23;100149.16;5018304;28;20963;-52
2022/06/26 08:57:21;;;;;;;0.40;0.20;;;;;;;27.01;75.56;100152.69;5020765;28;20488;-51
2022/06/26 08:59:47;;;;;;;0.40;0.20;;;;;;;26.91;72.62;100143.66;5026596;28;20426;-51
2022/06/26 09:02:14;;;;;;;0.40;0.30;;;;;;;26.69;71.93;100142.19;5032745;28;20503;-51
2022/06/26 09:04:40;;;;;;;0.40;0.20;;;;;;;26.97;69.79;100145.78;5022771;28;20456;-51
2022/06/26 09:07:07;;;;;;;0.40;0.20;;;;;;;26.99;69.73;100144.59;5017576;28;20446;-51
2022/06/26 09:09:38;;;;;;;0.40;0.20;;;;;;;26.96;68.61;100141.31;5024934;28;20451;-51
2022/06/26 09:12:05;;;;;;;0.40;0.20;;;;;;;26.25;72.17;100134.56;5026622;28;20451;-51
2022/06/26 09:14:32;;;;;;;0.40;0.20;;;;;;;27.40;69.44;100136.88;5013457;28;20431;-51
2022/06/26 09:16:59;;;;;;;0.40;0.20;;;;;;;26.81;67.36;100130.06;5026635;28;20464;-51
2022/06/26 09:19:30;;;;;;;0.40;0.20;;;;;;;27.16;69.24;100129.31;5016486;28;20463;-51
2022/06/26 09:22:07;;;;;;;0.40;0.20;;;;;;;27.12;67.85;100123.28;5021367;28;20480;-52
2022/06/26 09:24:36;;;;;;;0.40;0.23;;;;;;;26.83;68.68;100128.03;5015399;28;20426;-51
2022/06/26 09:27:14;;;;;;;0.40;0.30;;;;;;;27.40;67.92;100123.22;5014075;28;20745;-51
2022/06/26 09:29:42;;;;;;;1.53;1.53;;;;;;;27.26;67.99;100121.03;5016133;28;20481;-51
2022/06/26 09:32:13;;;;;;;0.40;0.30;;;;;;;27.49;67.54;100127.75;5030631;28;20822;-51
2022/06/26 09:34:46;;;;;;;0.40;0.30;;;;;;;27.67;66.67;100125.03;5029554;28;20932;-51
2022/06/26 09:37:13;;;;;;;0.40;0.20;;;;;;;26.92;66.83;100120.81;5027937;28;20458;-53
2022/06/26 09:40:00;;;;;;;0.40;0.20;;;;;;;27.61;67.62;100121.03;5019410;28;20475;-51
2022/06/26 09:42:27;;;;;;;0.40;0.20;;;;;;;27.83;66.44;100125.19;5030757;28;20465;-52
2022/06/26 09:44:54;;;;;;;0.40;0.20;;;;;;;28.11;66.72;100133.25;5015801;28;20460;-52
2022/06/26 09:47:29;;;;;;;0.40;0.20;;;;;;;27.53;66.60;100133.75;5033782;28;20423;-53
2022/06/26 09:49:58;;;;;;;0.40;0.20;;;;;;;27.69;65.71;100140.28;5034389;28;20447;-52
2022/06/26 09:52:27;;;;;;;0.40;0.20;;;;;;;27.38;66.11;100142.50;5034587;28;20823;-52
2022/06/26 09:54:54;;;;;;;0.40;0.20;;;;;;;27.23;67.81;100145.94;5030957;28;20426;-52
2022/06/26 09:57:28;;;;;;;1.40;1.40;;;;;;;27.01;65.58;100134.44;5033977;28;20464;-51
2022/06/26 09:59:56;;;;;;;0.40;0.30;;;;;;;27.35;67.30;100151.00;5034081;28;20419;-52
2022/06/26 10:08:02;;;;;;;0.40;0.20;;;;;;;27.73;63.80;100154.47;5033768;28;20450;-53
2022/06/26 10:10:30;;;;;;;0.40;0.30;;;;;;;27.64;64.64;100148.06;5031476;28;20790;-51
2022/06/26 10:13:02;;;;;;;0.47;0.30;;;;;;;28.15;62.42;100143.69;5032341;28;20426;-51
2022/06/26 10:15:34;;;;;;;0.40;0.20;;;;;;;27.79;62.86;100137.44;5034047;28;20430;-51
2022/06/26 10:18:25;;;;;;;0.50;0.43;;;;;;;27.99;62.83;100138.13;5034046;28;20479;-52
2022/06/26 10:20:54;;;;;;;0.40;0.20;;;;;;;27.82;61.48;100137.13;5020352;28;20450;-51
2022/06/26 10:23:35;;;;;;;0.40;0.20;;;;;;;28.20;61.92;100145.94;5027962;28;20452;-51
2022/06/26 10:26:17;;;;;;;0.40;0.20;;;;;;;28.66;59.53;100135.66;5031119;28;20457;-51
2022/06/26 10:29:06;;;;;;;0.93;0.87;;;;;;;28.33;59.93;100133.59;5027889;28;20424;-51
2022/06/26 10:31:42;;;;;;;0.40;0.30;;;;;;;28.93;58.89;100135.47;5031726;28;20865;-52
2022/06/26 10:34:19;;;;;;;0.40;0.30;;;;;;;28.10;59.70;100134.25;5032105;28;20441;-53
2022/06/26 10:36:58;;;;;;;0.40;0.20;;;;;;;28.35;60.33;100133.41;5019234;28;20427;-52
2022/06/26 10:39:43;;;;;;;0.40;0.20;;;;;;;28.71;59.96;100116.88;5030119;28;20467;-52
2022/06/26 10:45:14;;;;;;;0.40;0.20;;;;;;;27.61;60.45;100126.50;5033263;28;20443;-52
2022/06/26 10:47:44;;;;;;;0.40;0.20;;;;;;;28.46;60.94;100118.63;5027151;28;20430;-52
2022/06/26 10:50:22;;;;;;;0.40;0.20;;;;;;;28.00;61.43;100117.97;5027194;28;20477;-51
2022/06/26 10:52:49;;;;;;;0.40;0.20;;;;;;;28.25;59.49;100119.00;5024613;28;20521;-52
2022/06/26 10:55:16;;;;;;;0.40;0.20;;;;;;;28.69;59.91;100116.16;5033135;28;20425;-51
2022/06/26 10:57:42;;;;;;;0.40;0.30;;;;;;;28.70;60.37;100123.34;5032921;28;20458;-52
2022/06/26 11:00:12;;;;;;;0.40;0.30;;;;;;;28.53;59.24;100122.44;5037765;28;20447;-52
2022/06/26 11:02:44;;;;;;;0.40;0.23;;;;;;;27.97;59.66;100134.69;5034806;28;20446;-52
2022/06/26 11:05:13;;;;;;;0.40;0.30;;;;;;;27.97;60.83;100132.81;5027326;28;20449;-51
2022/06/26 11:07:51;;;;;;;0.40;0.20;;;;;;;28.37;59.80;100127.78;5028020;28;20426;-52
2022/06/26 11:10:21;;;;;;;0.40;0.30;;;;;;;27.92;57.53;100131.56;5032727;28;20421;-52
2022/06/26 11:12:50;;;;;;;0.40;0.30;;;;;;;27.90;58.30;100126.25;5028485;28;20446;-52
2022/06/26 11:15:26;;;;;;;0.40;0.20;;;;;;;27.68;59.65;100113.09;5023921;28;20470;-52
2022/06/26 11:17:58;;;;;;;0.40;0.20;;;;;;;27.32;59.04;100115.84;5032504;28;20491;-51
2022/06/26 11:23:33;;;;;;;0.40;0.30;;;;;;;27.82;58.02;100120.72;5017302;28;20451;-52
2022/06/26 11:26:05;;;;;;;0.40;0.30;;;;;;;27.90;56.49;100125.41;5018893;28;20447;-52
2022/06/26 11:28:38;;;;;;;0.40;0.30;;;;;;;27.50;58.23;100118.56;5025380;28;20766;-52
2022/06/26 11:31:07;;;;;;;0.40;0.30;;;;;;;27.58;59.12;100120.50;5017350;28;20503;-52
2022/06/26 11:33:36;;;;;;;0.40;0.20;;;;;;;27.42;60.25;100121.22;5032527;28;20458;-53
2022/06/26 11:36:09;;;;;;;0.40;0.20;;;;;;;27.38;60.94;100130.72;5032362;28;20429;-52
2022/06/26 11:38:36;;;;;;;0.40;0.30;;;;;;;27.20;60.79;100125.25;5023837;28;20991;-52
2022/06/26 11:41:07;;;;;;;0.40;0.20;;;;;;;26.96;62.24;100125.81;5021696;28;20544;-52
2022/06/26 11:43:35;;;;;;;0.40;0.20;;;;;;;26.97;62.57;100126.66;5022704;28;20505;-52
2022/06/26 11:46:02;;;;;;;0.40;0.20;;;;;;;27.06;62.03;100123.91;5032470;28;20787;-52
2022/06/26 11:48:29;;;;;;;0.40;0.30;;;;;;;27.00;62.97;100129.09;5031341;28;20920;-53